Time;durP1;ratioP1;P1;durP2;ratioP2;P2;SDS_P1;SDS_P2;PMS_P1;PMS_P2;Temp;Humidity;BMP_temperature;BMP_pressure;BME280_temperature;BME280_humidity;BME280_pressure;Samples;Min_cycle;Max_cycle;Signal;HPM_P1;HPM_P2
2022/01/30 00:02:08;;;;;;;30.47;17.43;;;;;;;;;;10453495;28;20055;-67
2022/01/30 00:07:09;;;;;;;30.00;18.13;;;;;;;;;;10453440;28;20431;-68
2022/01/30 00:12:09;;;;;;;26.20;18.00;;;;;;;;;;10452791;28;20087;-68
2022/01/30 00:17:20;;;;;;;30.13;17.10;;;;;;;;;;10453472;28;20503;-68
2022/01/30 00:22:40;;;;;;;26.02;17.52;;;;;;;;;;10454326;28;20021;-67
2022/01/30 00:27:50;;;;;;;24.48;16.00;;;;;;;;;;10454714;28;20033;-68
2022/01/30 00:32:52;;;;;;;23.63;16.27;;;;;;;;;;10451193;28;20033;-67
2022/01/30 00:37:52;;;;;;;26.73;16.50;;;;;;;;;;10450614;28;20057;-68
2022/01/30 00:42:52;;;;;;;25.67;15.40;;;;;;;;;;10452662;28;20023;-66
2022/01/30 00:47:53;;;;;;;24.57;16.03;;;;;;;;;;10453288;28;20032;-65
2022/01/30 00:52:55;;;;;;;26.20;16.50;;;;;;;;;;10453029;28;20533;-68
2022/01/30 00:57:56;;;;;;;25.30;15.50;;;;;;;;;;10452713;28;20036;-67
2022/01/30 01:02:57;;;;;;;29.20;15.68;;;;;;;;;;10452193;28;20424;-66
2022/01/30 01:08:00;;;;;;;23.38;15.30;;;;;;;;;;10452004;28;20082;-66
2022/01/30 01:23:50;;;;;;;26.80;15.95;;;;;;;;;;10445471;28;20040;-69
2022/01/30 01:28:52;;;;;;;24.70;16.42;;;;;;;;;;10445789;28;20148;-69
2022/01/30 01:39:00;;;;;;;25.63;16.52;;;;;;;;;;10441791;28;20064;-67
2022/01/30 01:44:00;;;;;;;27.48;17.17;;;;;;;;;;10444810;28;20036;-68
2022/01/30 01:49:01;;;;;;;24.20;16.40;;;;;;;;;;10444539;28;20051;-69
2022/01/30 01:54:01;;;;;;;25.17;16.73;;;;;;;;;;10448348;28;20029;-63
2022/01/30 01:59:01;;;;;;;25.43;16.93;;;;;;;;;;10450403;28;20680;-69
2022/01/30 02:04:02;;;;;;;26.73;16.37;;;;;;;;;;10449615;28;20021;-69
2022/01/30 02:09:08;;;;;;;24.97;17.60;;;;;;;;;;10451050;28;20433;-68
2022/01/30 02:29:45;;;;;;;23.95;15.88;;;;;;;;;;10450333;28;20037;-64
2022/01/30 02:34:45;;;;;;;23.50;16.35;;;;;;;;;;10449043;28;20041;-63
2022/01/30 02:39:46;;;;;;;26.90;17.00;;;;;;;;;;10446348;28;20108;-64
2022/01/30 02:44:56;;;;;;;24.13;15.50;;;;;;;;;;10449610;28;20453;-65
2022/01/30 02:50:21;;;;;;;26.98;16.98;;;;;;;;;;10447602;28;20017;-63
2022/01/30 02:55:21;;;;;;;22.80;14.63;;;;;;;;;;10449103;28;20431;-63
2022/01/30 03:00:21;;;;;;;25.08;16.90;;;;;;;;;;10449023;28;20021;-64
2022/01/30 03:05:22;;;;;;;24.05;15.55;;;;;;;;;;10449293;28;20033;-63
2022/01/30 03:10:23;;;;;;;23.27;15.88;;;;;;;;;;10449924;28;20048;-65
2022/01/30 03:15:23;;;;;;;24.17;15.52;;;;;;;;;;10449160;28;20305;-65
2022/01/30 03:20:23;;;;;;;24.95;15.63;;;;;;;;;;10449043;28;20029;-70
2022/01/30 03:25:25;;;;;;;23.63;15.93;;;;;;;;;;10449342;28;20428;-69
2022/01/30 03:30:29;;;;;;;25.60;15.90;;;;;;;;;;10448703;28;20036;-69
2022/01/30 03:35:29;;;;;;;24.13;15.77;;;;;;;;;;10448733;28;20056;-68
2022/01/30 03:40:29;;;;;;;22.97;15.17;;;;;;;;;;10449292;28;20055;-69
2022/01/30 03:45:30;;;;;;;24.77;15.10;;;;;;;;;;10450884;28;20510;-69
2022/01/30 03:50:30;;;;;;;22.77;15.43;;;;;;;;;;10453010;28;20021;-69
2022/01/30 03:55:31;;;;;;;21.75;15.50;;;;;;;;;;10455584;28;20529;-68
2022/01/30 04:00:32;;;;;;;21.77;14.37;;;;;;;;;;10455084;28;20017;-68
2022/01/30 04:05:32;;;;;;;19.63;14.18;;;;;;;;;;10455398;28;21049;-66
2022/01/30 04:10:33;;;;;;;20.58;14.55;;;;;;;;;;10455077;28;20472;-66
2022/01/30 04:15:34;;;;;;;20.33;13.93;;;;;;;;;;10455252;28;20033;-69
2022/01/30 04:20:34;;;;;;;17.77;13.75;;;;;;;;;;10454955;28;20025;-69
2022/01/30 04:25:35;;;;;;;21.52;14.25;;;;;;;;;;10455650;28;20017;-69
2022/01/30 04:30:35;;;;;;;21.92;14.30;;;;;;;;;;10453844;28;20476;-69
2022/01/30 04:35:36;;;;;;;19.45;13.50;;;;;;;;;;10453823;28;20286;-69
2022/01/30 05:02:04;;;;;;;19.05;13.25;;;;;;;;;;10452744;28;20259;-65
2022/01/30 05:12:05;;;;;;;17.08;13.07;;;;;;;;;;10452645;28;20033;-68
2022/01/30 05:17:06;;;;;;;15.98;12.10;;;;;;;;;;10452314;28;20067;-68
2022/01/30 05:22:07;;;;;;;20.15;12.80;;;;;;;;;;10451805;28;20045;-66
2022/01/30 05:27:08;;;;;;;17.67;12.15;;;;;;;;;;10452455;28;20025;-67
2022/01/30 05:32:09;;;;;;;16.23;12.88;;;;;;;;;;10451391;28;20056;-68
2022/01/30 05:37:11;;;;;;;18.85;12.40;;;;;;;;;;10450847;28;20045;-67
2022/01/30 05:42:12;;;;;;;15.98;12.20;;;;;;;;;;10451297;28;20091;-68
2022/01/30 05:47:22;;;;;;;19.50;11.70;;;;;;;;;;10451380;28;20021;-68
2022/01/30 05:52:22;;;;;;;18.58;11.73;;;;;;;;;;10449825;28;20384;-67
2022/01/30 05:57:23;;;;;;;15.68;11.45;;;;;;;;;;10444385;28;20035;-67
2022/01/30 06:02:23;;;;;;;16.37;11.43;;;;;;;;;;10450815;28;20075;-68
2022/01/30 06:07:29;;;;;;;16.93;11.83;;;;;;;;;;10450285;28;20965;-67
2022/01/30 06:12:29;;;;;;;16.35;11.73;;;;;;;;;;10449912;28;20487;-68
2022/01/30 06:17:30;;;;;;;15.57;11.37;;;;;;;;;;10448915;28;20029;-67
2022/01/30 06:22:31;;;;;;;15.87;11.17;;;;;;;;;;10450003;28;20458;-67
2022/01/30 06:27:31;;;;;;;16.58;10.85;;;;;;;;;;10449471;28;20032;-68
2022/01/30 06:32:32;;;;;;;16.57;10.67;;;;;;;;;;10449585;28;20372;-67
2022/01/30 06:37:33;;;;;;;16.33;10.98;;;;;;;;;;10449672;28;20531;-68
2022/01/30 06:42:33;;;;;;;12.95;9.98;;;;;;;;;;10449020;28;20036;-67
2022/01/30 06:47:43;;;;;;;14.20;10.17;;;;;;;;;;10449426;28;20101;-69
2022/01/30 06:52:44;;;;;;;17.55;9.80;;;;;;;;;;10449800;28;20443;-67
2022/01/30 06:57:45;;;;;;;16.27;10.25;;;;;;;;;;10446389;28;20052;-69
2022/01/30 07:02:46;;;;;;;13.80;9.98;;;;;;;;;;10445000;28;20032;-69
2022/01/30 07:07:46;;;;;;;14.60;9.53;;;;;;;;;;10448381;28;20029;-69
2022/01/30 07:12:46;;;;;;;12.47;9.00;;;;;;;;;;10448918;28;20542;-68
2022/01/30 07:17:47;;;;;;;13.93;10.15;;;;;;;;;;10449446;28;20031;-68
2022/01/30 07:22:48;;;;;;;11.48;8.48;;;;;;;;;;10455474;28;20486;-69
2022/01/30 07:27:48;;;;;;;15.05;9.80;;;;;;;;;;10455974;28;20021;-70
2022/01/30 07:32:49;;;;;;;16.57;9.57;;;;;;;;;;10456148;28;20051;-70
2022/01/30 07:37:50;;;;;;;17.83;9.77;;;;;;;;;;10455517;28;20045;-69
2022/01/30 07:42:50;;;;;;;22.85;10.43;;;;;;;;;;10455696;28;20377;-70
2022/01/30 07:47:51;;;;;;;14.60;9.80;;;;;;;;;;10454494;28;20031;-69
2022/01/30 07:52:51;;;;;;;14.77;9.80;;;;;;;;;;10454289;28;21030;-70
2022/01/30 07:57:51;;;;;;;21.00;9.47;;;;;;;;;;10455087;28;20500;-67
2022/01/30 08:02:52;;;;;;;15.82;9.52;;;;;;;;;;10449880;28;20490;-66
2022/01/30 08:07:52;;;;;;;17.30;8.93;;;;;;;;;;10453029;28;20021;-66
2022/01/30 08:12:52;;;;;;;16.07;9.23;;;;;;;;;;10451460;28;20438;-66
2022/01/30 08:17:54;;;;;;;18.42;9.77;;;;;;;;;;10454663;28;20112;-66
2022/01/30 08:22:55;;;;;;;13.77;8.70;;;;;;;;;;10454501;28;20032;-66
2022/01/30 08:27:55;;;;;;;14.18;9.00;;;;;;;;;;10455114;28;20025;-66
2022/01/30 08:32:58;;;;;;;14.13;9.38;;;;;;;;;;10454587;28;20416;-66
2022/01/30 08:37:59;;;;;;;15.18;9.25;;;;;;;;;;10453600;28;20060;-66
2022/01/30 08:43:00;;;;;;;12.98;8.85;;;;;;;;;;10454299;28;20109;-66
2022/01/30 08:48:00;;;;;;;13.27;8.77;;;;;;;;;;10453617;28;20487;-66
2022/01/30 08:53:01;;;;;;;20.43;9.17;;;;;;;;;;10453542;28;20450;-65
2022/01/30 08:58:07;;;;;;;15.68;8.85;;;;;;;;;;10453403;28;21027;-66
2022/01/30 09:03:08;;;;;;;15.10;8.82;;;;;;;;;;10453191;28;20423;-65
2022/01/30 09:08:08;;;;;;;14.85;8.98;;;;;;;;;;10452372;28;20079;-66
2022/01/30 09:13:08;;;;;;;13.35;9.02;;;;;;;;;;10445917;28;20033;-66
2022/01/30 09:18:11;;;;;;;16.17;8.45;;;;;;;;;;10450962;28;20036;-65
2022/01/30 09:23:13;;;;;;;14.57;8.77;;;;;;;;;;10448278;28;20111;-68
2022/01/30 09:28:14;;;;;;;14.15;8.82;;;;;;;;;;10450510;28;20025;-68
2022/01/30 09:33:15;;;;;;;11.43;8.80;;;;;;;;;;10452094;28;20459;-67
2022/01/30 09:38:15;;;;;;;15.43;8.93;;;;;;;;;;10451953;28;20048;-67
2022/01/30 09:43:15;;;;;;;13.37;8.77;;;;;;;;;;10451703;28;21002;-68
2022/01/30 09:48:17;;;;;;;15.10;8.60;;;;;;;;;;10451207;28;20056;-68
2022/01/30 09:53:18;;;;;;;15.50;8.73;;;;;;;;;;10450977;28;20116;-68
2022/01/30 09:58:19;;;;;;;14.30;8.73;;;;;;;;;;10450905;28;20426;-68
2022/01/30 10:03:26;;;;;;;12.60;8.43;;;;;;;;;;10450643;28;20024;-68
2022/01/30 10:08:28;;;;;;;13.68;8.52;;;;;;;;;;10450935;28;20067;-68
2022/01/30 10:13:33;;;;;;;14.45;8.90;;;;;;;;;;10447981;28;20025;-67
2022/01/30 10:18:42;;;;;;;12.13;8.02;;;;;;;;;;10446807;28;20384;-67
2022/01/30 10:23:43;;;;;;;11.73;7.90;;;;;;;;;;10449335;28;20029;-65
2022/01/30 10:28:44;;;;;;;15.70;8.53;;;;;;;;;;10447852;28;20051;-66
2022/01/30 10:33:51;;;;;;;12.57;7.97;;;;;;;;;;10447210;28;20948;-68
2022/01/30 10:39:10;;;;;;;12.63;8.38;;;;;;;;;;10447359;28;20041;-67
2022/01/30 10:44:11;;;;;;;15.68;8.57;;;;;;;;;;10448800;28;20476;-68
2022/01/30 10:49:16;;;;;;;12.95;8.65;;;;;;;;;;10448975;28;20048;-68
2022/01/30 10:54:16;;;;;;;15.77;8.48;;;;;;;;;;10455079;28;20032;-67
2022/01/30 10:59:20;;;;;;;13.63;9.00;;;;;;;;;;10456899;28;20021;-68
2022/01/30 11:04:30;;;;;;;12.70;8.13;;;;;;;;;;10456988;28;20039;-66
2022/01/30 11:14:39;;;;;;;15.05;8.07;;;;;;;;;;10457094;28;20457;-67
2022/01/30 11:19:42;;;;;;;14.15;8.55;;;;;;;;;;10453813;28;20032;-67
2022/01/30 11:24:52;;;;;;;13.13;8.00;;;;;;;;;;10453142;28;20480;-67
2022/01/30 11:29:52;;;;;;;12.73;7.90;;;;;;;;;;10455964;28;20116;-68
2022/01/30 11:34:55;;;;;;;14.37;8.50;;;;;;;;;;10455932;28;20132;-68
2022/01/30 11:39:56;;;;;;;12.20;8.35;;;;;;;;;;10456663;28;20816;-68
2022/01/30 11:45:08;;;;;;;14.45;8.90;;;;;;;;;;10455914;28;20025;-68
2022/01/30 11:50:09;;;;;;;11.60;7.38;;;;;;;;;;10456269;28;20055;-67
2022/01/30 11:55:41;;;;;;;12.77;8.20;;;;;;;;;;10455760;28;20025;-68
2022/01/30 12:00:47;;;;;;;13.45;7.30;;;;;;;;;;10456379;28;20025;-67
2022/01/30 12:05:48;;;;;;;11.05;7.65;;;;;;;;;;10454363;28;20335;-68
2022/01/30 12:10:48;;;;;;;14.50;7.53;;;;;;;;;;10455559;28;20098;-66
2022/01/30 12:15:49;;;;;;;15.63;8.07;;;;;;;;;;10455188;28;20025;-66
2022/01/30 12:21:08;;;;;;;9.82;7.22;;;;;;;;;;10451393;28;20517;-65
2022/01/30 12:26:16;;;;;;;13.32;8.38;;;;;;;;;;10451421;28;20553;-65
2022/01/30 12:31:26;;;;;;;11.23;7.65;;;;;;;;;;10454698;28;20036;-65
2022/01/30 12:36:27;;;;;;;12.73;7.65;;;;;;;;;;10453702;28;20052;-65
2022/01/30 12:41:29;;;;;;;10.65;6.97;;;;;;;;;;10453798;28;20025;-65
2022/01/30 12:46:33;;;;;;;11.48;7.97;;;;;;;;;;10453014;28;20033;-65
2022/01/30 12:51:35;;;;;;;11.35;7.95;;;;;;;;;;10452839;28;20476;-65
2022/01/30 12:56:36;;;;;;;12.05;7.22;;;;;;;;;;10450415;28;20033;-65
2022/01/30 13:01:43;;;;;;;11.15;7.35;;;;;;;;;;10451439;28;20025;-65
2022/01/30 13:06:46;;;;;;;10.85;7.38;;;;;;;;;;10451616;28;20032;-65
2022/01/30 13:11:47;;;;;;;12.38;7.53;;;;;;;;;;10451191;28;20033;-65
2022/01/30 13:16:50;;;;;;;11.68;7.65;;;;;;;;;;10451256;28;20035;-65
2022/01/30 13:21:50;;;;;;;12.55;7.60;;;;;;;;;;10451820;28;20457;-65
2022/01/30 13:27:09;;;;;;;14.10;7.50;;;;;;;;;;10448690;28;20056;-66
2022/01/30 13:32:11;;;;;;;11.95;7.60;;;;;;;;;;10447006;28;20987;-65
2022/01/30 13:37:15;;;;;;;11.75;7.32;;;;;;;;;;10449885;28;20408;-66
2022/01/30 13:47:28;;;;;;;12.80;7.80;;;;;;;;;;10452369;28;20524;-66
2022/01/30 13:52:31;;;;;;;11.50;7.87;;;;;;;;;;10451406;28;20108;-66
2022/01/30 13:57:34;;;;;;;10.13;6.90;;;;;;;;;;10449744;28;20461;-76
2022/01/30 14:02:34;;;;;;;10.95;7.55;;;;;;;;;;10450898;28;20029;-66
2022/01/30 14:07:38;;;;;;;9.02;6.65;;;;;;;;;;10450329;28;20040;-67
2022/01/30 14:12:40;;;;;;;12.95;7.95;;;;;;;;;;10449514;28;20024;-67
2022/01/30 14:17:42;;;;;;;12.73;7.32;;;;;;;;;;10449464;28;20476;-66
2022/01/30 14:23:04;;;;;;;9.43;6.45;;;;;;;;;;10450247;28;20396;-66
2022/01/30 14:28:25;;;;;;;11.23;7.35;;;;;;;;;;10446104;28;20032;-68
2022/01/30 14:33:31;;;;;;;12.25;7.28;;;;;;;;;;10446705;28;20029;-66
2022/01/30 14:38:32;;;;;;;16.38;7.88;;;;;;;;;;10449593;28;20412;-64
2022/01/30 14:43:33;;;;;;;20.25;8.73;;;;;;;;;;10449919;28;20442;-66
2022/01/30 14:48:34;;;;;;;18.53;8.07;;;;;;;;;;10449554;28;20107;-65
2022/01/30 14:53:34;;;;;;;17.65;8.38;;;;;;;;;;10447933;28;20450;-65
2022/01/30 14:58:34;;;;;;;12.50;7.67;;;;;;;;;;10447600;28;20487;-65
2022/01/30 15:03:35;;;;;;;13.20;6.93;;;;;;;;;;10447402;28;20446;-66
2022/01/30 15:08:35;;;;;;;14.63;7.40;;;;;;;;;;10449461;28;20036;-65
2022/01/30 15:13:38;;;;;;;13.80;7.40;;;;;;;;;;10447337;28;20028;-65
2022/01/30 15:18:42;;;;;;;12.95;7.97;;;;;;;;;;10448969;28;20821;-63
2022/01/30 15:23:43;;;;;;;14.50;7.65;;;;;;;;;;10446865;28;20125;-63
2022/01/30 15:28:43;;;;;;;14.88;8.10;;;;;;;;;;10449026;28;20105;-63
2022/01/30 15:33:44;;;;;;;14.98;7.82;;;;;;;;;;10448975;28;20025;-63
2022/01/30 15:38:44;;;;;;;14.60;7.22;;;;;;;;;;10449675;28;20052;-63
2022/01/30 15:43:45;;;;;;;12.43;6.97;;;;;;;;;;10456179;28;20305;-63
2022/01/30 15:49:01;;;;;;;15.77;6.90;;;;;;;;;;10455157;28;20460;-63
2022/01/30 15:54:04;;;;;;;11.88;7.28;;;;;;;;;;10456342;28;20032;-63
2022/01/30 15:59:05;;;;;;;11.07;7.20;;;;;;;;;;10455935;28;20036;-63
2022/01/30 16:04:05;;;;;;;11.45;7.50;;;;;;;;;;10454178;28;20041;-63
2022/01/30 16:09:10;;;;;;;11.73;7.53;;;;;;;;;;10454739;28;20021;-69
2022/01/30 16:19:32;;;;;;;12.20;6.85;;;;;;;;;;10452909;28;20037;-67
2022/01/30 16:24:32;;;;;;;9.68;6.78;;;;;;;;;;10452788;28;20017;-67
2022/01/30 16:29:33;;;;;;;13.93;7.63;;;;;;;;;;10453616;28;20028;-66
2022/01/30 16:34:33;;;;;;;13.20;7.45;;;;;;;;;;10453445;28;20595;-66
2022/01/30 16:39:34;;;;;;;17.60;7.15;;;;;;;;;;10452860;28;20033;-66
2022/01/30 16:44:40;;;;;;;14.50;6.95;;;;;;;;;;10453305;28;20033;-67
2022/01/30 16:49:40;;;;;;;13.68;7.20;;;;;;;;;;10453579;28;20033;-66
2022/01/30 16:54:41;;;;;;;13.65;6.78;;;;;;;;;;10453447;28;20025;-67
2022/01/30 16:59:41;;;;;;;13.25;7.43;;;;;;;;;;10453240;28;20025;-67
2022/01/30 17:04:42;;;;;;;9.37;6.13;;;;;;;;;;10452054;28;20035;-68
2022/01/30 17:09:44;;;;;;;10.68;6.68;;;;;;;;;;10448895;28;20499;-68
2022/01/30 17:14:50;;;;;;;13.80;6.97;;;;;;;;;;10447716;28;20516;-65
2022/01/30 17:19:53;;;;;;;11.57;6.13;;;;;;;;;;10451042;28;20032;-65
2022/01/30 17:24:53;;;;;;;12.52;6.60;;;;;;;;;;10450440;28;20032;-65
2022/01/30 17:29:53;;;;;;;14.20;6.88;;;;;;;;;;10451753;28;20025;-67
2022/01/30 17:34:54;;;;;;;12.73;6.10;;;;;;;;;;10451558;28;20172;-65
2022/01/30 17:39:54;;;;;;;7.87;5.73;;;;;;;;;;10450511;28;20469;-65
2022/01/30 17:44:54;;;;;;;10.77;6.67;;;;;;;;;;10451144;28;20454;-65
2022/01/30 17:49:55;;;;;;;9.97;6.10;;;;;;;;;;10451548;28;20036;-65
2022/01/30 17:54:56;;;;;;;12.48;6.40;;;;;;;;;;10451207;28;20492;-64
2022/01/30 17:59:56;;;;;;;13.13;6.60;;;;;;;;;;10450120;28;20056;-66
2022/01/30 18:04:57;;;;;;;16.27;7.73;;;;;;;;;;10448975;28;20593;-67
2022/01/30 18:09:57;;;;;;;18.80;8.17;;;;;;;;;;10450825;28;20548;-67
2022/01/30 18:14:58;;;;;;;19.23;8.07;;;;;;;;;;10450142;28;20481;-67
2022/01/30 18:19:58;;;;;;;20.37;8.00;;;;;;;;;;10449090;28;20029;-67
2022/01/30 18:24:59;;;;;;;16.92;8.27;;;;;;;;;;10448919;28;20477;-67
2022/01/30 18:29:59;;;;;;;18.17;7.87;;;;;;;;;;10448614;28;20025;-67
2022/01/30 18:35:01;;;;;;;15.37;7.77;;;;;;;;;;10449433;28;20553;-67
2022/01/30 18:40:12;;;;;;;14.00;7.65;;;;;;;;;;10449074;28;20056;-67
2022/01/30 18:45:12;;;;;;;15.48;7.30;;;;;;;;;;10446913;28;20066;-67
2022/01/30 18:50:13;;;;;;;18.03;7.40;;;;;;;;;;10447248;28;20048;-68
2022/01/30 18:55:13;;;;;;;23.47;7.60;;;;;;;;;;10447021;28;20621;-65
2022/01/30 19:00:14;;;;;;;14.93;7.37;;;;;;;;;;10449068;28;20418;-68
2022/01/30 19:05:14;;;;;;;44.65;9.13;;;;;;;;;;10449115;28;20740;-67
2022/01/30 19:10:15;;;;;;;26.75;8.93;;;;;;;;;;10448353;28;20033;-67
2022/01/30 19:15:15;;;;;;;26.88;8.65;;;;;;;;;;10453538;28;20373;-67
2022/01/30 19:20:16;;;;;;;22.08;8.48;;;;;;;;;;10457171;28;20023;-67
2022/01/30 19:25:17;;;;;;;24.30;9.60;;;;;;;;;;10457843;28;20021;-67
2022/01/30 19:30:17;;;;;;;27.33;9.98;;;;;;;;;;10457684;28;20017;-67
2022/01/30 19:35:17;;;;;;;22.13;9.60;;;;;;;;;;10457112;28;20095;-67
2022/01/30 19:40:18;;;;;;;16.23;9.05;;;;;;;;;;10456896;28;20483;-67
2022/01/30 19:45:19;;;;;;;22.25;9.55;;;;;;;;;;10457266;28;20170;-67
2022/01/30 19:50:19;;;;;;;21.27;9.98;;;;;;;;;;10457212;28;20512;-67
2022/01/30 19:55:19;;;;;;;24.00;9.47;;;;;;;;;;10456369;28;20476;-65
2022/01/30 20:00:20;;;;;;;17.95;10.13;;;;;;;;;;10456738;28;20537;-65
2022/01/30 20:05:21;;;;;;;17.23;9.77;;;;;;;;;;10456543;28;20031;-65
2022/01/30 20:10:21;;;;;;;15.40;9.97;;;;;;;;;;10456029;28;20108;-66
2022/01/30 20:15:23;;;;;;;23.57;10.47;;;;;;;;;;10455597;28;20712;-65
2022/01/30 20:20:23;;;;;;;20.08;10.85;;;;;;;;;;10455498;28;20779;-65
2022/01/30 20:25:23;;;;;;;17.43;10.20;;;;;;;;;;10454707;28;20017;-65
2022/01/30 20:30:24;;;;;;;19.70;11.10;;;;;;;;;;10455700;28;20975;-65
2022/01/30 20:35:25;;;;;;;22.02;11.05;;;;;;;;;;10454658;28;20214;-65
2022/01/30 20:40:25;;;;;;;19.83;11.50;;;;;;;;;;10454764;28;20147;-65
2022/01/30 20:45:25;;;;;;;22.17;12.30;;;;;;;;;;10455024;28;21008;-65
2022/01/30 20:50:26;;;;;;;21.70;11.25;;;;;;;;;;10454783;28;20450;-65
2022/01/30 20:55:29;;;;;;;23.27;11.70;;;;;;;;;;10453748;28;20335;-65
2022/01/30 21:00:30;;;;;;;21.08;12.38;;;;;;;;;;10453899;28;20793;-65
2022/01/30 21:05:32;;;;;;;18.30;11.70;;;;;;;;;;10453749;28;20039;-65
2022/01/30 21:10:35;;;;;;;24.08;11.77;;;;;;;;;;10453619;28;20027;-65
2022/01/30 21:15:35;;;;;;;20.77;11.20;;;;;;;;;;10453658;28;20032;-65
2022/01/30 21:20:36;;;;;;;20.47;11.27;;;;;;;;;;10453209;28;20033;-65
2022/01/30 21:25:40;;;;;;;20.85;11.52;;;;;;;;;;10451618;28;20526;-65
2022/01/30 21:30:41;;;;;;;16.98;11.57;;;;;;;;;;10453152;28;20025;-67
2022/01/30 21:35:44;;;;;;;16.52;10.00;;;;;;;;;;10451707;28;20045;-67
2022/01/30 21:40:45;;;;;;;13.82;10.05;;;;;;;;;;10450664;28;20025;-67
2022/01/30 21:45:45;;;;;;;17.58;10.80;;;;;;;;;;10448880;28;20049;-65
2022/01/30 21:50:46;;;;;;;18.40;10.82;;;;;;;;;;10451555;28;20040;-67
2022/01/30 21:55:46;;;;;;;20.65;12.77;;;;;;;;;;10452205;28;20021;-68
2022/01/30 22:00:50;;;;;;;25.77;15.05;;;;;;;;;;10451408;28;20419;-69
2022/01/30 22:05:50;;;;;;;24.55;13.65;;;;;;;;;;10450393;28;20108;-67
2022/01/30 22:10:51;;;;;;;29.07;14.40;;;;;;;;;;10449864;28;20452;-65
2022/01/30 22:15:51;;;;;;;28.90;15.55;;;;;;;;;;10448196;28;20466;-66
2022/01/30 22:20:52;;;;;;;28.73;14.93;;;;;;;;;;10448328;28;20350;-67
2022/01/30 22:25:53;;;;;;;23.90;15.00;;;;;;;;;;10444997;28;20021;-66
2022/01/30 22:30:54;;;;;;;26.25;14.85;;;;;;;;;;10446780;28;20442;-68
2022/01/30 22:35:57;;;;;;;25.00;16.10;;;;;;;;;;10447512;28;20535;-67
2022/01/30 22:40:59;;;;;;;22.55;14.25;;;;;;;;;;10450660;28;20028;-65
2022/01/30 22:46:00;;;;;;;31.02;14.98;;;;;;;;;;10449924;28;20025;-65
2022/01/30 22:51:00;;;;;;;26.50;14.73;;;;;;;;;;10447692;28;20029;-65
2022/01/30 22:56:00;;;;;;;27.07;14.43;;;;;;;;;;10447313;28;20489;-66
2022/01/30 23:01:01;;;;;;;33.43;14.27;;;;;;;;;;10449861;28;20525;-65
2022/01/30 23:06:01;;;;;;;25.73;15.30;;;;;;;;;;10449633;28;20032;-65
2022/01/30 23:11:02;;;;;;;22.63;13.70;;;;;;;;;;10449791;28;20048;-65
2022/01/30 23:16:03;;;;;;;23.98;14.25;;;;;;;;;;10449560;28;20791;-65
2022/01/30 23:21:03;;;;;;;28.58;13.85;;;;;;;;;;10448376;28;20104;-65
2022/01/30 23:26:03;;;;;;;20.98;13.48;;;;;;;;;;10444353;28;20108;-65
2022/01/30 23:31:04;;;;;;;21.57;14.10;;;;;;;;;;10447604;28;20074;-65
2022/01/30 23:36:04;;;;;;;20.83;12.67;;;;;;;;;;10448432;28;20599;-66
2022/01/30 23:41:18;;;;;;;18.80;12.75;;;;;;;;;;10449174;28;20434;-65
2022/01/30 23:46:18;;;;;;;19.88;12.98;;;;;;;;;;10449309;28;20546;-65
2022/01/30 23:51:18;;;;;;;20.43;12.67;;;;;;;;;;10448179;28;20114;-65
2022/01/30 23:56:21;;;;;;;29.97;13.00;;;;;;;;;;10447933;28;20953;-65
